KAUW/AUW METAR and TAF weather

Enter ICAO airport designator
Station Type Date Time Source
KAUW METAR 2021/07/29 16:54 UTC NOAA

KAUW 291654Z AUTO 34009KT 6SM HZ SCT024 SCT030 25/18 A3000 RMK AO2 SLP155 T02500183


Station Type Date Time Source
KAUW Decoded METAR 2021/07/29 16:54 UTC NOAA

WAUSAU DOWNTOWN AIRPORT, WI, United States (KAUW) 44-56N 089-37W 362M
Jul 29, 2021 - 12:54 PM EDT / 2021.07.29 1654 UTC
Wind: from the NNW (340 degrees) at 10 MPH (9 KT):0
Visibility: 6 mile(s):0
Sky conditions: partly cloudy
Weather: haze
Temperature: 77.0 F (25.0 C)
Dew Point: 64.9 F (18.3 C)
Relative Humidity: 66%
Pressure (altimeter): 30 in. Hg (1015 hPa)
ob: KAUW 291654Z AUTO 34009KT 6SM HZ SCT024 SCT030 25/18 A3000 RMK AO2 SLP155 T02500183
cycle: 17

Station Type Date Time Source
KAUW TAF 2021/07/29 12:58 UTC NOAA

TAF
AMD KAUW 291156Z 2912/3012 33006KT P6SM SCT004
TEMPO 2912/2913 BKN004
FM291300 35008KT P6SM SCT015
FM291600 35009G17KT P6SM SCT040
FM300100 04004KT P6SM SCT040

Example: see airport list